Time;durP1;ratioP1;P1;durP2;ratioP2;P2;SDS_P1;SDS_P2;PMS_P1;PMS_P2;Temp;Humidity;BMP_temperature;BMP_pressure;BME280_temperature;BME280_humidity;BME280_pressure;Samples;Min_cycle;Max_cycle;Signal;HPM_P1;HPM_P2
2023/09/03 00:00:42;;;;;;;2.35;0.73;;;;;;;22.36;44.25;101577.84;5033836;28;20497;-78
2023/09/03 00:03:08;;;;;;;1.45;0.55;;;;;;;22.37;44.36;101574.91;5065526;28;20382;-82
2023/09/03 00:05:34;;;;;;;1.43;0.50;;;;;;;22.28;44.48;101568.19;5048784;28;20405;-80
2023/09/03 00:08:01;;;;;;;2.70;1.00;;;;;;;22.27;44.32;101559.25;5032326;28;20850;-81
2023/09/03 00:10:26;;;;;;;3.03;0.90;;;;;;;22.32;44.33;101563.97;5049263;28;20426;-81
2023/09/03 00:12:52;;;;;;;2.80;1.23;;;;;;;22.27;44.57;101555.72;5033824;28;20418;-81
2023/09/03 00:15:23;;;;;;;2.53;0.80;;;;;;;22.33;44.42;101566.44;5032997;28;20449;-82
2023/09/03 00:17:48;;;;;;;3.08;1.00;;;;;;;22.19;44.68;101567.63;5047285;28;20800;-81
2023/09/03 00:20:14;;;;;;;2.10;0.67;;;;;;;22.21;44.70;101564.69;5032453;28;20946;-79
2023/09/03 00:22:39;;;;;;;2.08;0.70;;;;;;;22.20;44.34;101561.19;5032246;28;20412;-85
2023/09/03 00:25:07;;;;;;;3.17;0.90;;;;;;;22.27;44.42;101566.50;5047455;28;20887;-81
2023/09/03 00:27:32;;;;;;;2.75;0.80;;;;;;;22.35;44.27;101570.81;5032183;28;20386;-81
2023/09/03 00:29:58;;;;;;;2.40;0.70;;;;;;;22.37;44.29;101574.09;5031835;28;20409;-78
2023/09/03 00:32:23;;;;;;;2.72;1.00;;;;;;;22.37;44.37;101574.91;5032027;28;20390;-78
2023/09/03 00:34:49;;;;;;;3.23;0.90;;;;;;;22.36;44.27;101562.44;5032856;28;20422;-82
2023/09/03 00:37:17;;;;;;;2.70;0.90;;;;;;;22.27;44.25;101561.97;5047496;28;20390;-78
2023/09/03 00:39:45;;;;;;;3.17;0.98;;;;;;;22.24;44.78;101565.06;5032468;28;20386;-80
2023/09/03 00:42:10;;;;;;;2.38;0.75;;;;;;;22.21;44.92;101573.63;5031467;28;20990;-80
2023/09/03 00:44:36;;;;;;;2.08;0.60;;;;;;;22.20;44.89;101563.03;5032201;28;20422;-79
2023/09/03 00:47:02;;;;;;;2.50;0.80;;;;;;;22.18;44.85;101557.03;5032560;28;20390;-81
2023/09/03 00:49:28;;;;;;;2.43;0.80;;;;;;;22.13;45.07;101555.03;5032360;28;20406;-81
2023/09/03 00:51:55;;;;;;;2.63;0.88;;;;;;;22.11;45.07;101566.06;5029766;28;20512;-83
2023/09/03 00:54:22;;;;;;;5.07;1.38;;;;;;;22.11;45.27;101563.38;5029695;28;20378;-81
2023/09/03 00:56:50;;;;;;;2.88;1.00;;;;;;;22.08;45.21;101550.31;5031387;28;20485;-85
2023/09/03 00:59:18;;;;;;;3.17;0.88;;;;;;;22.08;45.35;101563.81;5031778;28;20391;-79
2023/09/03 01:01:45;;;;;;;2.15;0.80;;;;;;;22.04;45.36;101562.63;5063903;28;20401;-81
2023/09/03 01:04:14;;;;;;;2.65;0.90;;;;;;;22.00;45.70;101556.00;5030682;28;20394;-79
2023/09/03 01:06:43;;;;;;;2.83;0.82;;;;;;;21.95;45.85;101556.69;5031940;28;20445;-78
2023/09/03 01:09:08;;;;;;;1.95;0.65;;;;;;;21.91;45.79;101550.09;5031885;28;20506;-77
2023/09/03 01:12:19;;;;;;;1.80;0.60;;;;;;;21.93;45.57;101558.78;5032448;28;20837;-79
2023/09/03 01:14:53;;;;;;;2.25;0.63;;;;;;;21.92;45.53;101557.13;4951693;29;20393;-80
2023/09/03 01:17:28;;;;;;;2.10;0.73;;;;;;;21.94;45.75;101555.03;4951894;29;20512;-79
2023/09/03 01:20:11;;;;;;;2.22;0.60;;;;;;;22.01;45.34;101554.16;5000055;28;21080;-79
2023/09/03 01:23:31;;;;;;;1.52;0.60;;;;;;;22.13;44.94;101561.25;5032660;28;20374;-83
2023/09/03 01:26:30;;;;;;;1.52;0.60;;;;;;;22.13;44.84;101572.06;4971029;28;20442;-80
2023/09/03 01:28:59;;;;;;;2.70;0.90;;;;;;;22.11;44.92;101562.53;5030779;28;20513;-78
2023/09/03 01:31:28;;;;;;;2.30;0.60;;;;;;;22.10;44.94;101561.69;5014419;28;21012;-79
2023/09/03 01:34:02;;;;;;;2.53;0.90;;;;;;;22.05;45.51;101566.13;5030953;28;20503;-78
2023/09/03 01:36:33;;;;;;;2.30;0.70;;;;;;;21.98;45.58;101555.41;5047376;28;20394;-82
2023/09/03 01:39:03;;;;;;;2.30;0.70;;;;;;;21.98;45.51;101560.81;5030605;28;20387;-78
2023/09/03 01:41:33;;;;;;;2.00;0.80;;;;;;;21.93;45.63;101561.50;5031210;28;20390;-80
2023/09/03 01:44:02;;;;;;;2.30;0.70;;;;;;;21.82;46.10;101562.22;5031203;28;20382;-80
2023/09/03 01:46:40;;;;;;;2.15;0.70;;;;;;;21.71;46.61;101558.38;5030534;28;20838;-79
2023/09/03 01:49:38;;;;;;;2.78;0.80;;;;;;;21.67;46.81;101559.06;5031315;28;20485;-81
2023/09/03 01:52:17;;;;;;;2.67;0.82;;;;;;;21.71;46.37;101561.09;5030964;28;20390;-80
2023/09/03 01:54:48;;;;;;;2.08;0.70;;;;;;;21.74;46.53;101559.84;5031218;28;20512;-79
2023/09/03 01:57:30;;;;;;;1.53;0.53;;;;;;;21.74;46.15;101552.56;5030510;28;20909;-80
2023/09/03 02:00:00;;;;;;;2.00;0.70;;;;;;;21.58;46.74;101559.34;5031756;28;20881;-80
2023/09/03 02:02:27;;;;;;;2.53;0.70;;;;;;;21.49;47.04;101549.91;5046363;28;20480;-80
2023/09/03 02:04:54;;;;;;;2.25;0.80;;;;;;;21.33;47.73;101543.16;5045967;28;20389;-81
2023/09/03 02:07:22;;;;;;;2.55;0.80;;;;;;;21.24;47.91;101557.97;5031164;28;20390;-79
2023/09/03 02:09:48;;;;;;;1.85;0.73;;;;;;;21.18;48.25;101565.09;5031064;28;20978;-78
2023/09/03 02:12:23;;;;;;;2.08;0.80;;;;;;;21.03;48.85;101561.06;5031113;28;20374;-80
2023/09/03 02:14:55;;;;;;;1.38;0.70;;;;;;;20.85;49.24;101554.56;5046382;28;20773;-80
2023/09/03 02:17:24;;;;;;;1.17;0.50;;;;;;;20.66;49.88;101560.91;5030759;28;20386;-81
2023/09/03 02:19:51;;;;;;;1.83;0.70;;;;;;;20.72;49.68;101566.22;5045820;28;20405;-80
2023/09/03 02:22:17;;;;;;;2.03;0.88;;;;;;;20.74;49.44;101555.25;5029668;28;20378;-80
2023/09/03 02:24:45;;;;;;;1.42;0.50;;;;;;;20.88;48.95;101550.59;5030763;28;20386;-84
2023/09/03 02:27:11;;;;;;;2.40;0.73;;;;;;;20.98;48.62;101556.34;5030437;28;20406;-79
2023/09/03 02:29:38;;;;;;;1.70;0.70;;;;;;;20.95;48.88;101551.38;5029358;28;20410;-79
2023/09/03 02:32:05;;;;;;;1.40;0.60;;;;;;;20.89;49.11;101536.09;5030515;28;20386;-81
2023/09/03 02:34:31;;;;;;;1.42;0.63;;;;;;;21.00;48.61;101551.53;5031215;28;20557;-80
2023/09/03 02:36:56;;;;;;;1.97;0.77;;;;;;;20.98;48.60;101559.03;5031303;28;20390;-80
2023/09/03 02:39:23;;;;;;;2.13;0.70;;;;;;;20.95;48.55;101552.19;5030757;28;20383;-80
2023/09/03 02:41:54;;;;;;;2.58;1.00;;;;;;;21.00;48.34;101549.66;5030402;28;20508;-80
2023/09/03 02:44:20;;;;;;;1.73;0.80;;;;;;;21.00;48.23;101544.28;5030450;28;20379;-79
2023/09/03 02:46:45;;;;;;;1.70;0.70;;;;;;;21.04;48.44;101546.53;5030152;28;20466;-78
2023/09/03 02:49:14;;;;;;;1.20;0.50;;;;;;;21.04;48.46;101539.28;5030398;28;20413;-80
2023/09/03 02:51:41;;;;;;;1.30;0.50;;;;;;;21.06;48.41;101547.16;5030309;28;20469;-83
2023/09/03 02:54:09;;;;;;;1.65;0.60;;;;;;;21.08;48.29;101537.78;5045705;28;20857;-83
2023/09/03 02:56:37;;;;;;;1.43;0.70;;;;;;;21.09;48.11;101535.94;5030566;28;20390;-78
2023/09/03 02:59:05;;;;;;;1.35;0.63;;;;;;;21.03;48.41;101547.56;5030301;28;20398;-79
2023/09/03 03:01:33;;;;;;;1.77;0.82;;;;;;;20.99;48.59;101549.88;5030328;28;20381;-76
2023/09/03 03:03:59;;;;;;;1.40;0.80;;;;;;;20.94;48.78;101537.09;5030230;28;20481;-80
2023/09/03 03:06:27;;;;;;;0.98;0.45;;;;;;;20.92;48.84;101543.72;5030361;28;20379;-81
2023/09/03 03:08:53;;;;;;;1.02;0.47;;;;;;;20.78;49.24;101545.69;5045623;28;20494;-81
2023/09/03 03:11:18;;;;;;;1.40;0.70;;;;;;;20.79;49.31;101547.34;5045394;28;20469;-80
2023/09/03 03:13:46;;;;;;;0.95;0.40;;;;;;;20.90;48.92;101548.50;5045375;28;20481;-80
2023/09/03 03:16:14;;;;;;;1.88;0.77;;;;;;;20.96;48.58;101542.25;5028752;28;20394;-78
2023/09/03 03:18:43;;;;;;;1.45;0.60;;;;;;;20.90;48.67;101540.41;5029818;28;20389;-80
2023/09/03 03:21:18;;;;;;;1.33;0.73;;;;;;;20.84;49.09;101547.50;5028760;28;20394;-80
2023/09/03 03:23:52;;;;;;;1.40;0.77;;;;;;;20.74;49.44;101542.63;5028983;28;20859;-80
2023/09/03 03:26:26;;;;;;;1.40;0.70;;;;;;;20.76;49.26;101545.06;5013068;28;20974;-81
2023/09/03 03:28:55;;;;;;;0.88;0.38;;;;;;;20.76;49.16;101547.75;5045208;28;20844;-79
2023/09/03 03:34:07;;;;;;;1.88;0.82;;;;;;;20.69;49.48;101552.38;5029619;28;20421;-79
2023/09/03 03:36:33;;;;;;;2.07;0.70;;;;;;;20.57;49.36;101547.63;5029321;28;20401;-83
2023/09/03 03:38:59;;;;;;;3.45;1.27;;;;;;;20.60;49.22;101551.78;5043191;28;20800;-87
2023/09/03 03:41:24;;;;;;;2.80;0.90;;;;;;;20.61;49.28;101559.66;5027139;28;20958;-79
2023/09/03 03:43:53;;;;;;;2.95;1.15;;;;;;;20.55;49.32;101568.59;5027778;28;20421;-80
2023/09/03 03:46:22;;;;;;;2.97;1.02;;;;;;;20.50;49.42;101565.69;5028166;28;20516;-79
2023/09/03 03:48:48;;;;;;;2.05;0.70;;;;;;;20.49;49.49;101556.00;5028079;28;20929;-80
2023/09/03 03:51:14;;;;;;;2.40;0.90;;;;;;;20.53;49.38;101551.81;5028763;28;20397;-83
2023/09/03 03:53:41;;;;;;;2.38;0.88;;;;;;;20.48;49.74;101556.19;5027952;28;20412;-78
2023/09/03 03:56:09;;;;;;;2.58;0.88;;;;;;;20.50;49.57;101554.94;5028170;28;20374;-80
2023/09/03 03:58:37;;;;;;;2.03;0.65;;;;;;;20.47;49.60;101558.03;5028532;28;20426;-80
2023/09/03 04:01:19;;;;;;;2.28;0.80;;;;;;;20.41;49.92;101562.44;5029298;28;20382;-79
2023/09/03 04:03:46;;;;;;;1.45;0.80;;;;;;;20.42;49.72;101566.78;5029393;28;20417;-81
2023/09/03 04:06:12;;;;;;;1.98;0.60;;;;;;;20.42;49.92;101574.06;5026450;28;20382;-81
2023/09/03 04:08:39;;;;;;;1.83;0.80;;;;;;;20.40;49.90;101566.19;5028224;28;20409;-80
2023/09/03 04:11:07;;;;;;;2.70;1.15;;;;;;;20.38;50.06;101572.81;5027774;28;20389;-81
2023/09/03 04:13:34;;;;;;;2.28;0.73;;;;;;;20.26;50.38;101575.34;5026456;28;20382;-82
2023/09/03 04:16:09;;;;;;;2.50;1.00;;;;;;;20.25;50.40;101571.00;5043965;28;20387;-82
2023/09/03 04:18:38;;;;;;;1.67;0.60;;;;;;;20.23;50.67;101565.00;5026834;28;20390;-80
2023/09/03 04:21:03;;;;;;;2.45;0.85;;;;;;;20.27;50.76;101562.72;5028499;28;20726;-80
2023/09/03 04:23:29;;;;;;;2.28;1.00;;;;;;;20.31;50.55;101569.31;5028737;28;20402;-80
2023/09/03 04:25:58;;;;;;;2.20;1.03;;;;;;;20.34;50.41;101572.41;5028476;28;20374;-83
2023/09/03 04:28:26;;;;;;;2.38;0.98;;;;;;;20.36;50.50;101570.31;5047693;28;20386;-81
2023/09/03 04:30:57;;;;;;;1.73;0.70;;;;;;;20.38;50.50;101579.03;5032614;28;20390;-77
2023/09/03 04:33:23;;;;;;;1.85;0.93;;;;;;;20.43;50.39;101576.50;5032618;28;20541;-81
2023/09/03 04:35:57;;;;;;;2.25;0.80;;;;;;;20.51;50.38;101580.00;5031751;28;20480;-77
2023/09/03 04:38:26;;;;;;;1.57;0.50;;;;;;;20.50;50.28;101570.28;5032266;28;20758;-79
2023/09/03 04:40:52;;;;;;;3.50;1.08;;;;;;;20.60;50.25;101573.34;5032029;28;20405;-79
2023/09/03 04:43:20;;;;;;;2.00;0.63;;;;;;;20.70;49.91;101568.31;5032139;28;20387;-79
2023/09/03 04:45:51;;;;;;;1.60;0.63;;;;;;;20.70;50.00;101570.19;5031420;28;20452;-80
2023/09/03 04:48:18;;;;;;;2.53;0.95;;;;;;;20.74;49.95;101579.50;5031156;28;20841;-79
2023/09/03 04:50:44;;;;;;;1.73;0.60;;;;;;;20.68;50.04;101578.50;5031638;28;20472;-87
2023/09/03 04:53:12;;;;;;;2.00;0.70;;;;;;;20.73;49.99;101570.59;5045082;28;20439;-85
2023/09/03 04:55:41;;;;;;;1.60;0.70;;;;;;;20.82;49.81;101571.16;5024372;28;20475;-86
2023/09/03 04:58:07;;;;;;;1.13;0.45;;;;;;;20.89;49.75;101568.44;5003395;28;20444;-85
2023/09/03 05:00:36;;;;;;;1.77;0.63;;;;;;;20.86;49.88;101566.97;5029990;28;20465;-85
2023/09/03 05:03:04;;;;;;;1.40;0.43;;;;;;;20.96;49.69;101567.31;5029506;28;20405;-82
2023/09/03 05:05:31;;;;;;;2.35;0.80;;;;;;;20.99;49.74;101563.34;5039750;28;20490;-81
2023/09/03 05:07:57;;;;;;;1.67;0.60;;;;;;;21.11;49.55;101558.09;5010381;28;20568;-82
2023/09/03 05:10:22;;;;;;;1.60;0.70;;;;;;;21.29;49.26;101566.22;5037987;28;20927;-81
2023/09/03 05:12:48;;;;;;;2.37;1.10;;;;;;;21.50;48.90;101561.50;5011635;28;20891;-81
2023/09/03 05:15:13;;;;;;;1.83;0.70;;;;;;;21.62;48.75;101557.03;5011553;28;20467;-82
2023/09/03 05:17:40;;;;;;;1.67;0.70;;;;;;;21.61;48.81;101555.41;5021422;28;20392;-78
2023/09/03 05:20:06;;;;;;;2.33;0.97;;;;;;;21.53;49.16;101555.69;5020846;28;20497;-80
2023/09/03 05:22:33;;;;;;;2.07;0.90;;;;;;;21.67;48.96;101554.50;5017049;28;20495;-80
2023/09/03 05:24:58;;;;;;;2.65;0.90;;;;;;;21.71;49.16;101558.38;5046213;28;20939;-79
2023/09/03 05:27:24;;;;;;;2.08;0.70;;;;;;;21.86;48.90;101568.00;5017030;28;20424;-79
2023/09/03 05:29:52;;;;;;;2.73;1.27;;;;;;;22.10;48.42;101566.28;5025380;28;20415;-80
2023/09/03 05:32:19;;;;;;;1.10;0.60;;;;;;;22.23;48.14;101560.72;5022268;28;20398;-80
2023/09/03 05:34:44;;;;;;;1.55;0.60;;;;;;;22.33;47.97;101560.22;5031893;28;20485;-80
2023/09/03 05:37:10;;;;;;;2.00;0.87;;;;;;;22.43;47.89;101554.25;5031201;28;20466;-80
2023/09/03 05:39:36;;;;;;;2.30;0.80;;;;;;;22.55;47.75;101560.53;5030579;28;20402;-80
2023/09/03 05:42:02;;;;;;;1.60;0.60;;;;;;;22.52;47.91;101558.28;5031644;28;20378;-82
2023/09/03 05:44:27;;;;;;;2.40;0.93;;;;;;;22.37;48.27;101564.09;5046443;28;20440;-80
2023/09/03 05:46:52;;;;;;;1.85;0.68;;;;;;;22.60;48.01;101578.75;5030768;28;20410;-78
2023/09/03 05:49:18;;;;;;;0.70;0.40;;;;;;;22.73;47.69;101573.19;5031134;28;20517;-81
2023/09/03 05:51:44;;;;;;;2.05;0.73;;;;;;;22.86;47.53;101578.38;5031862;28;20378;-77
2023/09/03 05:54:10;;;;;;;2.07;0.70;;;;;;;22.83;47.87;101578.84;5031204;28;20770;-80
2023/09/03 05:56:36;;;;;;;1.65;0.70;;;;;;;22.79;47.72;101591.16;5029878;28;20422;-82
2023/09/03 05:59:10;;;;;;;1.45;0.60;;;;;;;22.80;47.82;101586.59;5030533;28;20410;-79
2023/09/03 06:01:40;;;;;;;1.50;0.70;;;;;;;22.99;47.42;101595.47;5030238;28;20398;-77
2023/09/03 06:04:09;;;;;;;1.67;0.73;;;;;;;23.14;47.21;101589.63;5030362;28;20425;-78
2023/09/03 06:06:39;;;;;;;1.50;0.70;;;;;;;23.15;47.04;101583.19;5045750;28;20399;-79
2023/09/03 06:09:05;;;;;;;1.53;0.63;;;;;;;23.27;47.00;101584.03;5030598;28;20486;-77
2023/09/03 06:11:32;;;;;;;2.10;0.80;;;;;;;23.56;46.58;101589.56;5013226;28;20908;-80
2023/09/03 06:13:57;;;;;;;1.80;0.70;;;;;;;23.56;46.43;101584.97;5030264;28;20397;-80
2023/09/03 06:16:23;;;;;;;1.92;0.90;;;;;;;23.48;46.53;101588.84;5029403;28;20706;-78
2023/09/03 06:18:49;;;;;;;1.67;0.83;;;;;;;23.60;46.57;101596.16;5023977;28;20414;-79
2023/09/03 06:21:14;;;;;;;1.70;0.60;;;;;;;23.78;46.08;101592.50;5028220;28;20473;-79
2023/09/03 06:23:40;;;;;;;1.70;0.60;;;;;;;23.88;45.87;101589.19;5030456;28;20444;-79
2023/09/03 06:26:05;;;;;;;1.73;0.70;;;;;;;23.99;45.78;101591.91;5030185;28;20469;-79
2023/09/03 06:31:14;;;;;;;1.70;0.73;;;;;;;24.26;45.26;101591.38;5029591;28;20401;-80
2023/09/03 06:33:41;;;;;;;1.83;0.87;;;;;;;24.44;45.28;101587.66;5029358;28;20402;-77
2023/09/03 06:36:07;;;;;;;2.03;0.70;;;;;;;24.47;45.18;101586.34;5029915;28;20401;-77
2023/09/03 06:38:32;;;;;;;1.80;0.80;;;;;;;24.45;45.33;101580.34;5030456;28;20873;-77
2023/09/03 06:40:58;;;;;;;1.70;0.73;;;;;;;24.61;44.89;101588.56;5030605;28;20390;-86
2023/09/03 06:43:24;;;;;;;2.53;1.08;;;;;;;24.87;44.79;101599.06;5028833;28;20387;-78
2023/09/03 06:45:49;;;;;;;1.70;0.60;;;;;;;25.00;44.53;101585.19;5029395;28;20394;-84
2023/09/03 06:48:15;;;;;;;1.43;0.60;;;;;;;25.14;44.61;101600.06;5027619;28;21018;-80
2023/09/03 06:50:41;;;;;;;1.10;0.50;;;;;;;25.05;44.24;101598.00;5017910;28;20398;-83
2023/09/03 06:53:07;;;;;;;1.25;0.60;;;;;;;25.00;44.74;101599.56;5030085;28;20386;-81
2023/09/03 06:55:32;;;;;;;1.33;0.60;;;;;;;25.24;44.29;101587.72;5029956;28;20402;-79
2023/09/03 06:57:58;;;;;;;1.05;0.55;;;;;;;25.48;44.14;101594.66;5029894;28;20540;-83
2023/09/03 07:00:23;;;;;;;1.85;0.63;;;;;;;25.65;43.94;101593.81;5045980;28;20477;-78
2023/09/03 07:03:09;;;;;;;1.30;0.57;;;;;;;25.75;43.60;101597.50;5029678;28;20756;-79
2023/09/03 07:05:35;;;;;;;1.27;0.60;;;;;;;25.83;43.59;101587.28;5029981;28;20917;-79
2023/09/03 07:08:00;;;;;;;1.60;0.70;;;;;;;25.78;43.38;101589.91;5028830;28;20592;-80
2023/09/03 07:10:26;;;;;;;1.30;0.53;;;;;;;26.00;43.27;101595.38;5029473;28;20417;-79
2023/09/03 07:12:51;;;;;;;2.47;0.80;;;;;;;26.20;43.04;101608.41;5029013;28;20473;-78
2023/09/03 07:15:17;;;;;;;1.70;0.70;;;;;;;26.24;43.02;101598.69;5029398;28;20896;-78
2023/09/03 07:17:42;;;;;;;1.50;0.80;;;;;;;26.24;42.29;101601.41;5027799;28;20545;-75
2023/09/03 07:20:08;;;;;;;1.57;0.70;;;;;;;26.15;42.29;101600.22;5016015;28;20431;-75
2023/09/03 07:22:34;;;;;;;2.00;0.70;;;;;;;26.29;42.40;101593.31;5027166;28;20789;-76
2023/09/03 07:24:59;;;;;;;1.43;0.57;;;;;;;26.50;42.13;101597.88;5018037;28;20396;-77
2023/09/03 07:27:25;;;;;;;2.00;0.70;;;;;;;26.54;42.12;101598.19;5024673;28;20517;-77
2023/09/03 07:29:54;;;;;;;0.95;0.43;;;;;;;26.75;41.79;101599.25;5045150;28;20863;-78
2023/09/03 07:32:23;;;;;;;1.90;0.93;;;;;;;26.88;41.67;101598.03;5029569;28;20386;-76
2023/09/03 07:34:50;;;;;;;1.55;0.65;;;;;;;26.96;41.86;101604.91;5029301;28;20789;-76
2023/09/03 07:37:15;;;;;;;2.17;0.80;;;;;;;27.00;41.97;101590.53;5028803;28;20386;-76
2023/09/03 07:39:41;;;;;;;1.92;0.70;;;;;;;27.14;41.42;101585.47;5029097;28;20410;-76
2023/09/03 07:42:06;;;;;;;2.03;0.80;;;;;;;27.34;40.82;101587.56;5029500;28;20479;-77
2023/09/03 07:44:32;;;;;;;1.80;0.80;;;;;;;27.31;40.54;101577.16;5027343;28;20765;-77
2023/09/03 07:46:57;;;;;;;1.90;0.77;;;;;;;27.39;40.80;101578.59;5028207;28;20904;-78
2023/09/03 07:49:23;;;;;;;2.13;0.95;;;;;;;27.54;40.79;101581.41;5022047;28;20434;-78
2023/09/03 07:51:49;;;;;;;2.40;0.80;;;;;;;27.60;41.09;101574.94;5017868;28;20408;-83
2023/09/03 07:54:17;;;;;;;2.17;0.73;;;;;;;27.69;41.02;101577.94;5025518;28;20493;-77
2023/09/03 07:56:42;;;;;;;3.67;1.27;;;;;;;27.73;40.78;101579.09;5028055;28;20386;-79
2023/09/03 07:59:08;;;;;;;2.10;0.65;;;;;;;27.78;41.33;101584.53;5028698;28;20401;-82
2023/09/03 08:01:33;;;;;;;2.67;0.90;;;;;;;27.99;40.67;101581.94;5044863;28;21034;-80
2023/09/03 08:03:59;;;;;;;3.67;1.20;;;;;;;28.15;40.16;101585.56;5032235;28;20472;-81
2023/09/03 08:06:25;;;;;;;2.20;0.93;;;;;;;28.32;40.15;101582.59;5048575;28;20480;-79
2023/09/03 08:08:53;;;;;;;2.60;0.83;;;;;;;28.43;39.95;101573.34;5033282;28;20416;-80
2023/09/03 08:11:21;;;;;;;2.20;0.88;;;;;;;28.52;39.94;101573.66;5031987;28;20820;-80
2023/09/03 08:13:50;;;;;;;1.70;0.70;;;;;;;28.50;39.93;101570.38;5033589;28;20394;-78
2023/09/03 08:16:16;;;;;;;1.83;0.63;;;;;;;28.60;39.81;101576.69;5033492;28;20386;-78
2023/09/03 08:18:42;;;;;;;3.17;1.38;;;;;;;28.63;39.85;101566.34;5032224;28;20383;-79
2023/09/03 08:21:07;;;;;;;1.92;0.70;;;;;;;28.67;40.15;101564.72;5048055;28;20727;-80
2023/09/03 08:23:33;;;;;;;2.97;0.90;;;;;;;28.78;39.84;101564.44;5032983;28;20386;-80
2023/09/03 08:25:58;;;;;;;2.57;0.90;;;;;;;28.91;39.50;101557.63;5030950;28;20434;-79
2023/09/03 08:28:24;;;;;;;2.50;0.97;;;;;;;29.06;39.08;101556.78;5031412;28;20386;-78
2023/09/03 08:30:49;;;;;;;2.83;0.87;;;;;;;29.15;39.12;101555.19;5033039;28;20885;-77
2023/09/03 08:33:15;;;;;;;2.07;0.67;;;;;;;29.19;39.34;101544.53;5048288;28;20426;-79
2023/09/03 08:35:41;;;;;;;1.90;0.60;;;;;;;29.20;39.05;101551.63;5033020;28;20852;-81
2023/09/03 08:38:07;;;;;;;2.00;0.82;;;;;;;29.33;38.96;101548.34;5048246;28;20398;-80
2023/09/03 08:40:33;;;;;;;3.83;1.13;;;;;;;29.34;39.10;101530.03;5031408;28;20389;-79
2023/09/03 08:43:07;;;;;;;1.60;0.60;;;;;;;29.39;38.76;101532.75;5032325;28;20792;-79
2023/09/03 08:45:37;;;;;;;3.53;1.08;;;;;;;29.42;38.29;101531.38;5031503;28;20452;-79
2023/09/03 08:48:02;;;;;;;2.20;0.70;;;;;;;29.35;38.32;101531.66;5031758;28;20470;-79
2023/09/03 08:50:29;;;;;;;2.15;0.90;;;;;;;29.49;38.31;101520.97;5032601;28;20403;-79
2023/09/03 08:52:56;;;;;;;2.17;0.80;;;;;;;29.49;38.64;101523.69;5032430;28;20385;-79
2023/09/03 08:55:22;;;;;;;2.53;1.33;;;;;;;29.38;38.88;101517.44;5031550;28;20880;-79
2023/09/03 08:57:48;;;;;;;2.50;0.80;;;;;;;29.54;38.55;101502.66;5048546;22;20433;-78
2023/09/03 09:00:14;;;;;;;2.13;0.75;;;;;;;29.52;38.45;101509.50;5032483;28;20397;-79
2023/09/03 09:02:42;;;;;;;1.92;0.60;;;;;;;29.40;36.33;101507.06;5032496;28;20474;-80
2023/09/03 09:05:09;;;;;;;2.73;0.80;;;;;;;29.42;36.19;101506.78;5032208;28;20440;-78
2023/09/03 09:07:35;;;;;;;2.25;0.70;;;;;;;29.68;36.16;101494.69;5032493;28;20406;-80
2023/09/03 09:10:10;;;;;;;3.28;0.90;;;;;;;29.87;35.95;101492.16;5014375;28;20444;-80
2023/09/03 09:12:47;;;;;;;2.40;0.82;;;;;;;29.66;34.31;101482.41;4998027;28;20852;-78
2023/09/03 09:15:12;;;;;;;2.42;0.80;;;;;;;29.47;35.09;101491.19;5032039;28;20382;-80
2023/09/03 09:17:42;;;;;;;3.37;0.97;;;;;;;29.69;35.61;101492.75;5027998;28;20762;-80
2023/09/03 09:20:17;;;;;;;3.22;0.88;;;;;;;29.73;34.09;101491.94;5011343;28;20970;-80
2023/09/03 09:22:45;;;;;;;3.03;0.80;;;;;;;29.84;34.16;101481.78;5014141;28;20865;-80
2023/09/03 09:25:25;;;;;;;3.03;1.05;;;;;;;29.92;34.11;101477.66;5012756;28;20394;-79
2023/09/03 09:27:57;;;;;;;3.90;1.10;;;;;;;30.13;34.26;101477.53;5012882;28;20522;-78
2023/09/03 09:30:25;;;;;;;3.23;1.17;;;;;;;29.91;33.61;101479.56;5027140;28;20415;-81
2023/09/03 09:33:04;;;;;;;2.70;0.90;;;;;;;30.13;34.38;101483.00;5023603;28;20430;-79
2023/09/03 09:35:30;;;;;;;2.17;0.70;;;;;;;30.25;33.88;101477.97;5030886;28;20387;-78
2023/09/03 09:38:06;;;;;;;3.17;1.00;;;;;;;30.51;33.58;101483.31;5013376;28;20383;-79
2023/09/03 09:40:32;;;;;;;3.30;0.90;;;;;;;30.38;32.93;101477.38;5012638;28;20390;-80
2023/09/03 09:43:00;;;;;;;3.35;0.90;;;;;;;30.08;33.43;101483.84;5025173;28;20430;-80
2023/09/03 09:45:27;;;;;;;2.83;0.75;;;;;;;30.31;33.33;101472.19;5012948;28;20854;-79
2023/09/03 09:48:07;;;;;;;3.85;1.13;;;;;;;30.46;32.58;101471.28;5029950;28;20391;-79
2023/09/03 09:50:33;;;;;;;3.38;0.90;;;;;;;30.43;32.42;101462.81;5030068;28;20932;-80
2023/09/03 09:52:58;;;;;;;3.15;0.95;;;;;;;30.44;32.13;101470.75;5030652;28;20471;-79
2023/09/03 09:55:24;;;;;;;2.85;0.80;;;;;;;30.46;32.42;101454.88;5029125;28;20390;-80
2023/09/03 09:57:51;;;;;;;3.50;1.00;;;;;;;30.63;32.25;101459.09;5030950;28;20405;-80
2023/09/03 10:00:41;;;;;;;2.03;0.60;;;;;;;30.68;32.40;101450.84;5031543;28;20393;-79
2023/09/03 10:03:12;;;;;;;2.35;0.70;;;;;;;30.86;32.62;101439.19;5013651;28;20401;-79
2023/09/03 10:05:38;;;;;;;3.58;0.77;;;;;;;30.96;33.04;101438.28;5013272;28;20399;-79
2023/09/03 10:08:04;;;;;;;4.63;1.10;;;;;;;30.93;33.59;101430.66;5029660;28;20390;-78
2023/09/03 10:10:34;;;;;;;5.70;1.25;;;;;;;31.03;33.07;101432.47;5028666;28;20409;-80
2023/09/03 10:13:02;;;;;;;6.32;1.15;;;;;;;31.10;32.40;101423.88;5030848;28;20832;-78
2023/09/03 10:15:29;;;;;;;5.78;1.13;;;;;;;31.14;32.52;101417.56;5031008;28;20398;-78
2023/09/03 10:17:56;;;;;;;7.93;1.63;;;;;;;31.27;32.15;101418.75;5028932;28;20390;-79
2023/09/03 10:20:23;;;;;;;5.47;1.13;;;;;;;31.25;32.26;101413.56;5029846;28;20393;-80
2023/09/03 10:22:56;;;;;;;8.18;1.27;;;;;;;31.27;32.31;101416.03;5013232;28;20378;-79
2023/09/03 10:25:26;;;;;;;5.47;1.20;;;;;;;31.28;30.00;101408.63;5030286;28;20394;-79
2023/09/03 10:28:02;;;;;;;5.65;1.02;;;;;;;31.31;30.37;101406.09;5012883;28;20398;-79
2023/09/03 10:30:32;;;;;;;3.03;0.75;;;;;;;31.33;30.21;101403.91;5012711;28;20414;-80
2023/09/03 10:33:02;;;;;;;3.15;0.73;;;;;;;31.42;30.43;101402.13;5028520;28;21073;-79
2023/09/03 10:35:30;;;;;;;8.70;1.55;;;;;;;31.54;29.74;101398.97;5028795;28;20916;-79
2023/09/03 10:37:55;;;;;;;8.85;1.80;;;;;;;31.61;30.19;101391.22;5027524;28;20409;-79
2023/09/03 10:40:28;;;;;;;9.93;1.77;;;;;;;31.74;30.37;101391.59;5027139;28;20937;-79
2023/09/03 10:43:13;;;;;;;8.75;1.55;;;;;;;31.83;30.05;101382.38;5026741;28;20456;-79
2023/09/03 10:45:39;;;;;;;9.25;1.65;;;;;;;31.87;30.10;101385.34;5028193;28;20378;-78
2023/09/03 10:48:10;;;;;;;10.73;1.65;;;;;;;31.89;30.30;101383.13;5028944;28;20391;-76
2023/09/03 10:50:44;;;;;;;6.60;1.20;;;;;;;31.91;30.10;101382.81;5029581;28;20410;-80
2023/09/03 10:53:34;;;;;;;5.35;1.25;;;;;;;32.00;28.88;101378.31;5029609;28;20482;-78
2023/09/03 10:56:17;;;;;;;4.53;1.08;;;;;;;32.13;29.25;101382.25;5027905;28;20391;-79
2023/09/03 10:58:59;;;;;;;4.32;0.95;;;;;;;32.22;28.88;101380.44;5029940;28;20909;-80
2023/09/03 11:01:31;;;;;;;3.40;0.85;;;;;;;32.15;29.23;101382.75;5029201;28;20450;-79
2023/09/03 11:04:00;;;;;;;5.63;1.43;;;;;;;32.15;28.82;101367.09;5029398;28;20466;-78
2023/09/03 11:06:31;;;;;;;5.80;1.27;;;;;;;32.19;29.14;101359.88;5011409;28;20827;-78
2023/09/03 11:08:59;;;;;;;6.00;1.33;;;;;;;32.35;29.00;101370.59;5029175;28;20410;-77
2023/09/03 11:11:28;;;;;;;5.22;1.10;;;;;;;32.16;27.04;101365.16;5028739;28;20382;-79
2023/09/03 11:13:55;;;;;;;4.07;1.00;;;;;;;32.12;28.03;101367.69;5011411;28;20486;-80
2023/09/03 11:16:31;;;;;;;4.63;1.00;;;;;;;32.20;27.39;101355.25;5028896;28;20919;-79
2023/09/03 11:18:57;;;;;;;5.05;1.27;;;;;;;32.25;26.80;101360.63;5029022;28;20485;-79
2023/09/03 11:21:27;;;;;;;2.47;0.88;;;;;;;32.21;27.15;101354.09;5011722;28;20440;-78
2023/09/03 11:24:08;;;;;;;8.77;2.00;;;;;;;32.28;28.23;101356.47;5026732;28;20387;-80
2023/09/03 11:26:37;;;;;;;7.03;1.50;;;;;;;32.41;28.39;101349.38;5027109;28;20469;-82
2023/09/03 11:29:21;;;;;;;7.60;1.70;;;;;;;32.50;28.73;101348.38;5009834;28;20470;-82
2023/09/03 11:31:51;;;;;;;7.20;1.50;;;;;;;32.61;28.28;101345.47;5009340;28;20405;-79
2023/09/03 11:34:28;;;;;;;3.63;0.90;;;;;;;32.71;28.17;101354.31;5029410;28;20391;-80
2023/09/03 11:36:56;;;;;;;6.10;1.40;;;;;;;32.76;28.16;101340.50;5030103;28;20386;-78